Time;durP1;ratioP1;P1;durP2;ratioP2;P2;SDS_P1;SDS_P2;PMS_P1;PMS_P2;Temp;Humidity;BMP_temperature;BMP_pressure;BME280_temperature;BME280_humidity;BME280_pressure;Samples;Min_cycle;Max_cycle;Signal;HPM_P1;HPM_P2
2022/04/25 00:01:30;;;;;;;16.33;14.20;;;;;;;9.05;97.42;99554.81;5004482;28;20046;-78
2022/04/25 00:03:55;;;;;;;18.50;14.75;;;;;;;9.07;97.30;99550.41;5005758;28;20033;-78
2022/04/25 00:06:21;;;;;;;18.50;16.05;;;;;;;9.13;97.68;99558.19;5009488;28;20029;-78
2022/04/25 00:08:46;;;;;;;16.63;13.02;;;;;;;9.16;97.36;99558.16;5007733;28;20109;-77
2022/04/25 00:11:12;;;;;;;17.45;14.90;;;;;;;9.13;97.00;99550.31;5004999;28;20504;-77
2022/04/25 00:13:37;;;;;;;17.77;15.85;;;;;;;9.21;97.17;99555.44;5002139;28;20045;-77
2022/04/25 00:16:03;;;;;;;16.05;14.35;;;;;;;9.25;96.85;99567.69;5011287;28;20041;-77
2022/04/25 00:18:28;;;;;;;16.25;14.27;;;;;;;9.21;96.09;99560.72;5001902;28;20050;-77
2022/04/25 00:20:55;;;;;;;15.73;13.70;;;;;;;9.21;96.71;99561.56;5008223;28;20129;-78
2022/04/25 00:23:21;;;;;;;15.82;13.10;;;;;;;9.29;96.84;99573.75;5006646;28;20065;-78
2022/04/25 00:25:46;;;;;;;16.48;14.77;;;;;;;9.35;96.39;99569.28;5009541;28;20092;-78
2022/04/25 00:28:11;;;;;;;16.13;14.43;;;;;;;9.39;96.17;99565.69;5006081;28;20038;-78
2022/04/25 00:30:36;;;;;;;13.77;12.18;;;;;;;9.46;95.35;99570.84;5006431;28;20049;-78
2022/04/25 00:33:02;;;;;;;14.93;13.15;;;;;;;9.41;95.05;99563.03;5008870;28;20057;-78
2022/04/25 00:35:28;;;;;;;14.23;12.00;;;;;;;9.41;95.16;99568.31;5006267;28;20038;-78
2022/04/25 00:37:54;;;;;;;14.32;12.77;;;;;;;9.37;94.80;99571.88;5008130;28;20393;-78
2022/04/25 00:40:21;;;;;;;18.15;14.73;;;;;;;9.31;95.56;99572.84;5007951;28;20041;-78
2022/04/25 00:42:47;;;;;;;14.23;12.73;;;;;;;9.26;95.75;99566.78;5004680;28;20038;-78
2022/04/25 00:45:14;;;;;;;15.35;12.82;;;;;;;9.23;96.21;99556.31;5005787;28;20085;-77
2022/04/25 00:47:40;;;;;;;13.30;11.50;;;;;;;9.20;96.73;99551.94;5007123;28;20088;-78
2022/04/25 00:50:07;;;;;;;13.57;11.50;;;;;;;9.16;97.06;99554.66;5016205;28;20404;-77
2022/04/25 00:52:32;;;;;;;14.95;13.35;;;;;;;9.12;97.10;99556.47;5004010;28;20038;-78
2022/04/25 00:55:00;;;;;;;15.32;12.35;;;;;;;9.17;97.45;99559.91;5010927;28;20031;-78
2022/04/25 00:57:26;;;;;;;18.30;13.00;;;;;;;9.17;97.51;99557.28;5010009;28;20065;-77
2022/04/25 00:59:52;;;;;;;17.85;13.82;;;;;;;9.10;97.44;99560.88;5011210;28;20037;-78
2022/04/25 01:02:17;;;;;;;18.25;14.27;;;;;;;9.14;97.44;99557.31;5007066;28;20050;-78
2022/04/25 01:04:43;;;;;;;15.52;13.38;;;;;;;9.17;97.35;99554.63;5010674;28;20120;-78
2022/04/25 01:07:09;;;;;;;19.00;14.73;;;;;;;9.15;97.09;99561.69;5004999;28;20092;-78
2022/04/25 01:09:34;;;;;;;16.23;13.10;;;;;;;9.21;97.21;99560.72;5010019;28;20041;-78
2022/04/25 01:12:00;;;;;;;17.90;14.57;;;;;;;9.21;97.13;99566.84;5007651;28;20034;-77
2022/04/25 01:14:26;;;;;;;16.90;14.13;;;;;;;9.30;97.16;99570.22;5007423;28;20402;-78
2022/04/25 01:16:51;;;;;;;16.35;13.73;;;;;;;9.34;96.65;99569.28;5010551;28;20104;-78
2022/04/25 01:19:16;;;;;;;15.75;13.38;;;;;;;9.40;96.71;99572.66;5015222;28;20056;-78
2022/04/25 01:21:50;;;;;;;18.92;14.73;;;;;;;9.49;96.30;99570.81;5007959;28;20030;-78
2022/04/25 01:27:18;;;;;;;15.98;14.27;;;;;;;9.64;96.10;99584.56;5005267;28;20678;-78
2022/04/25 01:29:48;;;;;;;17.02;13.30;;;;;;;9.73;96.25;99580.91;5003391;28;20040;-77
2022/04/25 01:32:14;;;;;;;19.85;14.68;;;;;;;9.82;96.13;99574.59;5006552;28;20034;-78
2022/04/25 01:34:40;;;;;;;14.98;13.13;;;;;;;9.89;95.12;99576.22;5007711;28;20088;-78
2022/04/25 01:37:09;;;;;;;13.80;12.02;;;;;;;9.92;95.13;99576.16;5007039;28;20485;-78
2022/04/25 01:39:48;;;;;;;14.15;11.77;;;;;;;9.93;94.29;99577.91;5006489;28;20440;-77
2022/04/25 01:42:14;;;;;;;15.73;13.98;;;;;;;9.90;93.60;99577.94;5015112;28;20088;-77
2022/04/25 01:44:40;;;;;;;14.75;13.10;;;;;;;9.96;94.24;99585.75;5005564;28;20038;-78
2022/04/25 01:47:06;;;;;;;15.75;13.32;;;;;;;10.03;94.31;99581.22;4994287;28;20034;-77
2022/04/25 01:49:35;;;;;;;17.92;14.10;;;;;;;10.10;93.96;99583.72;5011619;28;20441;-77
2022/04/25 01:52:14;;;;;;;14.43;11.93;;;;;;;10.10;93.46;99578.44;5009002;28;20110;-77
2022/04/25 01:54:40;;;;;;;15.40;11.40;;;;;;;10.04;92.90;99583.84;5008418;28;20022;-77
2022/04/25 01:57:05;;;;;;;13.73;11.20;;;;;;;9.97;92.38;99584.84;5010971;28;20041;-77
2022/04/25 01:59:30;;;;;;;16.75;11.95;;;;;;;10.00;92.73;99579.50;5013142;28;20049;-77
2022/04/25 02:01:56;;;;;;;15.43;11.48;;;;;;;9.96;92.38;99582.25;5011156;28;20044;-77
2022/04/25 02:04:22;;;;;;;15.05;11.15;;;;;;;10.03;91.94;99584.75;5010268;28;20063;-77
2022/04/25 02:06:47;;;;;;;16.85;11.27;;;;;;;10.03;91.42;99579.47;5006476;28;20156;-77
2022/04/25 02:09:13;;;;;;;17.33;10.82;;;;;;;9.91;90.58;99590.25;5006792;28;20041;-77
2022/04/25 02:11:39;;;;;;;14.05;9.40;;;;;;;9.72;90.89;99594.09;5003936;28;20505;-77
2022/04/25 02:14:04;;;;;;;14.55;9.82;;;;;;;9.65;90.97;99585.44;5003133;28;20074;-77
2022/04/25 02:16:30;;;;;;;16.20;8.73;;;;;;;9.58;90.88;99591.69;5005910;28;20044;-77
2022/04/25 02:18:55;;;;;;;17.10;9.07;;;;;;;9.49;90.81;99590.09;5007049;28;20057;-77
2022/04/25 02:21:21;;;;;;;14.23;9.18;;;;;;;9.32;89.67;99597.41;5006115;28;20028;-77
2022/04/25 02:23:47;;;;;;;14.65;9.18;;;;;;;9.38;90.39;99602.59;5004064;28;20133;-77
2022/04/25 02:26:12;;;;;;;15.15;8.18;;;;;;;9.39;90.43;99609.59;5004527;28;20069;-77
2022/04/25 02:28:39;;;;;;;13.43;7.85;;;;;;;9.38;90.34;99605.22;5005673;28;20042;-77
2022/04/25 02:31:05;;;;;;;12.13;7.95;;;;;;;9.37;90.94;99608.72;5003064;28;20072;-77
2022/04/25 02:33:32;;;;;;;12.63;7.72;;;;;;;9.42;90.90;99602.50;5004185;28;20374;-77
2022/04/25 02:35:57;;;;;;;14.88;7.93;;;;;;;9.46;90.52;99603.34;5005211;28;20066;-77
2022/04/25 02:38:23;;;;;;;13.88;8.52;;;;;;;9.31;90.28;99611.47;5003572;28;20077;-77
2022/04/25 02:41:04;;;;;;;18.63;9.05;;;;;;;9.32;91.11;99605.31;5006042;28;20034;-77
2022/04/25 02:43:43;;;;;;;15.13;9.25;;;;;;;9.37;90.48;99614.00;5002506;28;20556;-77
2022/04/25 02:46:11;;;;;;;16.38;9.88;;;;;;;9.24;90.63;99617.72;5004004;28;20120;-77
2022/04/25 02:48:37;;;;;;;19.55;10.13;;;;;;;9.13;92.05;99612.63;5003771;28;20038;-77
2022/04/25 02:51:05;;;;;;;15.30;10.40;;;;;;;9.15;91.82;99619.59;5005436;28;20060;-77
2022/04/25 02:53:31;;;;;;;15.93;9.55;;;;;;;9.06;91.54;99624.97;5008171;28;20034;-78
2022/04/25 02:55:57;;;;;;;17.95;10.43;;;;;;;9.06;91.77;99617.09;5009136;28;20511;-78
2022/04/25 02:58:23;;;;;;;17.40;9.60;;;;;;;9.00;91.72;99622.44;5013296;28;20041;-78
2022/04/25 03:00:49;;;;;;;16.38;10.60;;;;;;;8.95;92.20;99627.78;5016231;28;20045;-78
2022/04/25 03:03:16;;;;;;;20.60;10.38;;;;;;;9.01;92.49;99624.19;5011909;28;20038;-77
2022/04/25 03:05:43;;;;;;;14.90;9.23;;;;;;;8.96;91.45;99621.63;5012844;28;20097;-78
2022/04/25 03:08:10;;;;;;;16.05;10.15;;;;;;;8.87;91.18;99634.91;5012930;28;20042;-78
2022/04/25 03:10:36;;;;;;;17.00;9.07;;;;;;;8.81;91.68;99626.25;5007245;28;20045;-78
2022/04/25 03:13:03;;;;;;;17.92;10.07;;;;;;;8.71;91.76;99631.59;5011333;28;20038;-77
2022/04/25 03:15:29;;;;;;;17.90;9.40;;;;;;;8.67;91.96;99629.03;5007823;28;20048;-78
2022/04/25 03:17:54;;;;;;;14.55;9.27;;;;;;;8.63;91.68;99632.59;5008895;28;20037;-78
2022/04/25 03:20:19;;;;;;;17.20;9.70;;;;;;;8.55;92.00;99632.69;5006926;28;20045;-78
2022/04/25 03:22:45;;;;;;;17.70;10.15;;;;;;;8.50;92.14;99640.63;5008793;28;20038;-78
2022/04/25 03:25:10;;;;;;;17.58;9.63;;;;;;;8.48;91.77;99646.81;5007476;28;20042;-78
2022/04/25 03:27:36;;;;;;;15.05;8.85;;;;;;;8.44;90.96;99637.22;5008548;28;20033;-77
2022/04/25 03:30:01;;;;;;;15.82;9.85;;;;;;;8.37;92.07;99646.03;5010769;28;20455;-78
2022/04/25 03:32:26;;;;;;;18.30;10.90;;;;;;;8.34;91.87;99642.53;5018282;28;20041;-78
2022/04/25 03:34:52;;;;;;;19.30;11.65;;;;;;;8.41;91.76;99642.50;5009814;28;20568;-78
2022/04/25 03:37:17;;;;;;;15.60;9.20;;;;;;;8.38;91.90;99645.13;5010916;28;20535;-78
2022/04/25 03:39:43;;;;;;;18.92;11.15;;;;;;;8.31;91.91;99645.22;5012138;28;20039;-78
2022/04/25 03:42:08;;;;;;;16.33;10.65;;;;;;;8.32;92.51;99649.56;5008835;28;20038;-78
2022/04/25 03:44:33;;;;;;;15.57;10.32;;;;;;;8.28;91.77;99647.00;5011368;28;20042;-78
2022/04/25 03:46:59;;;;;;;17.60;10.85;;;;;;;8.23;91.97;99656.72;5015681;28;20070;-78
2022/04/25 03:49:24;;;;;;;17.20;10.68;;;;;;;8.23;91.82;99660.19;5005625;28;20042;-77
2022/04/25 03:51:49;;;;;;;18.83;10.35;;;;;;;8.16;91.21;99668.16;5007585;28;20037;-77
2022/04/25 03:57:09;;;;;;;18.38;9.77;;;;;;;8.11;90.93;99669.06;5007734;28;20025;-78
2022/04/25 03:57:12;;;;;;;19.27;10.50;;;;;;;8.06;92.14;99667.38;5000859;28;20053;-78
2022/04/25 03:59:38;;;;;;;14.13;10.85;;;;;;;8.05;91.94;99669.13;5011868;28;20108;-78
2022/04/25 04:02:04;;;;;;;18.50;11.57;;;;;;;7.99;92.54;99668.31;5007947;28;20096;-78
2022/04/25 04:04:30;;;;;;;17.20;10.82;;;;;;;7.95;91.53;99674.50;5004823;28;20457;-78
2022/04/25 04:06:55;;;;;;;21.60;11.73;;;;;;;7.94;91.08;99675.38;5007006;28;20115;-78
2022/04/25 04:12:04;;;;;;;19.33;11.50;;;;;;;7.94;91.32;99680.63;5005487;28;20084;-78
2022/04/25 04:14:31;;;;;;;18.10;10.85;;;;;;;8.07;91.58;99674.41;5005335;28;20117;-77
2022/04/25 04:16:57;;;;;;;16.83;10.35;;;;;;;8.12;91.04;99681.34;4985983;28;20042;-77
2022/04/25 04:19:22;;;;;;;20.13;10.82;;;;;;;8.12;90.99;99686.59;5004833;28;20520;-78
2022/04/25 04:21:47;;;;;;;19.17;10.88;;;;;;;8.03;90.07;99685.81;5010168;28;20042;-77
2022/04/25 04:24:13;;;;;;;18.83;11.20;;;;;;;7.89;90.36;99689.44;5009015;28;20045;-77
2022/04/25 04:26:38;;;;;;;18.30;11.27;;;;;;;7.95;90.33;99690.25;5000395;28;20038;-77
2022/04/25 04:29:04;;;;;;;16.73;10.45;;;;;;;7.93;89.74;99692.03;5007787;28;20046;-77
2022/04/25 04:31:29;;;;;;;17.27;11.82;;;;;;;7.86;90.09;99701.72;5002246;28;20049;-76
2022/04/25 04:33:54;;;;;;;28.77;17.20;;;;;;;7.91;90.83;99707.78;5009839;28;20038;-76
2022/04/25 04:36:22;;;;;;;16.67;10.68;;;;;;;7.94;90.12;99710.41;5009971;28;20030;-77
2022/04/25 04:38:47;;;;;;;17.13;10.10;;;;;;;7.99;90.20;99718.25;5005686;28;20038;-77
2022/04/25 04:41:13;;;;;;;18.85;11.70;;;;;;;7.87;90.39;99720.09;5006970;28;20037;-76
2022/04/25 04:43:38;;;;;;;17.02;10.00;;;;;;;7.78;90.49;99720.19;5009148;28;20033;-77
2022/04/25 04:46:04;;;;;;;18.42;10.82;;;;;;;7.73;91.23;99729.84;5013447;28;20041;-77
2022/04/25 04:48:29;;;;;;;13.52;9.77;;;;;;;7.72;91.20;99733.34;5004013;28;20045;-77
2022/04/25 04:50:56;;;;;;;20.40;10.50;;;;;;;7.67;90.81;99722.00;5008349;28;20038;-76
2022/04/25 04:53:22;;;;;;;20.95;11.90;;;;;;;7.67;91.18;99733.38;5005453;28;20069;-77
2022/04/25 04:55:48;;;;;;;21.23;11.25;;;;;;;7.74;91.34;99731.59;5006701;28;20117;-77
2022/04/25 04:58:14;;;;;;;18.77;10.82;;;;;;;7.71;91.29;99736.00;5004801;28;20041;-77
2022/04/25 05:00:42;;;;;;;24.45;10.88;;;;;;;7.65;91.70;99735.16;5003898;28;20089;-76
2022/04/25 05:03:08;;;;;;;17.35;10.27;;;;;;;7.73;91.89;99740.34;5005670;28;20507;-77
2022/04/25 05:05:33;;;;;;;15.88;9.98;;;;;;;7.80;91.08;99743.78;5006401;28;20089;-77
2022/04/25 05:07:59;;;;;;;18.33;11.27;;;;;;;7.83;91.52;99742.03;5004055;28;20050;-76
2022/04/25 05:10:25;;;;;;;17.83;12.00;;;;;;;7.79;90.65;99742.94;5012611;28;20041;-76
2022/04/25 05:12:53;;;;;;;16.83;10.15;;;;;;;7.88;89.91;99749.84;5009803;28;20104;-77
2022/04/25 05:15:20;;;;;;;18.35;10.93;;;;;;;7.78;90.63;99753.44;5013215;28;20045;-77
2022/04/25 05:17:50;;;;;;;15.85;10.43;;;;;;;7.73;90.35;99755.22;5013059;28;20045;-77
2022/04/25 05:20:17;;;;;;;21.83;10.77;;;;;;;7.90;90.58;99758.59;5007639;28;20097;-77
2022/04/25 05:22:44;;;;;;;20.00;10.60;;;;;;;7.94;89.98;99775.22;5006336;28;20404;-77
2022/04/25 05:25:12;;;;;;;16.00;10.13;;;;;;;7.92;88.83;99763.88;5005117;28;20039;-77
2022/04/25 05:27:38;;;;;;;16.25;10.23;;;;;;;7.82;89.24;99765.69;5004164;28;20061;-76
2022/04/25 05:30:04;;;;;;;17.63;10.68;;;;;;;7.81;89.19;99769.19;5007114;28;20038;-77
2022/04/25 05:32:51;;;;;;;17.30;9.40;;;;;;;7.86;89.23;99773.53;5008543;28;20080;-76
2022/04/25 05:35:22;;;;;;;14.93;10.38;;;;;;;7.83;88.86;99773.56;5006013;28;20046;-77
2022/04/25 05:37:47;;;;;;;20.35;10.93;;;;;;;7.82;88.90;99784.94;5004339;28;20057;-76
2022/04/25 05:40:15;;;;;;;16.92;10.25;;;;;;;7.74;88.84;99784.13;5005475;28;20053;-77
2022/04/25 05:42:41;;;;;;;17.17;9.70;;;;;;;7.74;88.83;99789.38;5009523;28;20400;-77
2022/04/25 05:45:09;;;;;;;14.55;10.23;;;;;;;7.82;88.83;99800.69;5010210;28;20050;-77
2022/04/25 05:47:35;;;;;;;19.27;9.88;;;;;;;7.71;88.69;99802.53;5008599;28;20037;-76
2022/04/25 05:52:45;;;;;;;19.02;11.38;;;;;;;7.65;88.25;99807.78;5010167;28;20074;-77
2022/04/25 05:55:11;;;;;;;19.75;10.63;;;;;;;7.72;89.22;99816.53;5009746;28;20030;-77
2022/04/25 05:57:37;;;;;;;14.13;9.07;;;;;;;7.71;88.03;99820.91;5006693;28;20034;-77
2022/04/25 06:00:08;;;;;;;17.88;10.05;;;;;;;7.73;89.01;99819.16;5009622;28;20034;-77
2022/04/25 06:02:39;;;;;;;14.60;9.85;;;;;;;7.94;88.79;99817.25;5007950;28;20053;-76
2022/04/25 06:05:06;;;;;;;15.38;9.52;;;;;;;8.02;86.94;99821.59;5007958;28;20046;-77
2022/04/25 06:07:33;;;;;;;15.05;8.13;;;;;;;8.21;86.20;99827.56;5010744;28;20037;-77
2022/04/25 06:09:59;;;;;;;16.75;9.40;;;;;;;8.31;85.73;99821.34;5013458;28;20038;-77
2022/04/25 06:12:24;;;;;;;15.95;9.35;;;;;;;8.33;84.69;99830.13;5008989;28;20373;-77
2022/04/25 06:14:53;;;;;;;15.48;9.23;;;;;;;8.32;84.80;99825.72;5011344;28;20142;-77
2022/04/25 06:17:19;;;;;;;14.63;8.93;;;;;;;8.41;84.04;99834.44;5009813;28;20519;-76
2022/04/25 06:19:44;;;;;;;13.68;9.52;;;;;;;8.51;83.76;99833.47;5007354;28;20494;-77
2022/04/25 06:22:09;;;;;;;15.27;9.65;;;;;;;8.59;83.69;99834.28;5008636;28;20041;-76
2022/04/25 06:24:35;;;;;;;17.60;9.85;;;;;;;8.67;83.03;99839.47;5006088;28;20042;-77
2022/04/25 06:27:02;;;;;;;15.50;10.18;;;;;;;8.66;82.82;99841.25;5006874;28;20030;-77
2022/04/25 06:29:29;;;;;;;13.38;8.90;;;;;;;8.83;82.82;99842.81;5006889;28;20050;-76
2022/04/25 06:31:54;;;;;;;18.23;9.80;;;;;;;8.95;80.37;99842.72;5006920;28;20100;-77
2022/04/25 06:34:20;;;;;;;13.95;9.30;;;;;;;8.98;80.22;99853.19;5009516;28;20042;-77
2022/04/25 06:36:45;;;;;;;11.75;8.70;;;;;;;9.12;80.75;99861.84;5006730;28;20405;-77
2022/04/25 06:39:11;;;;;;;16.13;9.27;;;;;;;8.96;79.49;99862.88;4988297;28;20501;-77
2022/04/25 06:41:36;;;;;;;14.57;8.90;;;;;;;8.99;79.58;99855.81;5008633;28;20033;-77
2022/04/25 06:44:01;;;;;;;14.20;8.85;;;;;;;9.32;79.83;99858.09;5019384;28;20409;-77
2022/04/25 06:46:28;;;;;;;13.82;8.75;;;;;;;9.56;78.89;99864.81;5008183;28;20508;-77
2022/04/25 06:51:37;;;;;;;12.77;8.63;;;;;;;10.19;76.91;99864.84;5006331;28;20038;-76
2022/04/25 06:54:02;;;;;;;12.23;7.82;;;;;;;10.37;74.58;99873.38;5009646;28;20045;-77
2022/04/25 06:56:28;;;;;;;10.90;7.82;;;;;;;10.35;74.30;99865.50;5007977;28;20070;-77
2022/04/25 06:58:53;;;;;;;11.27;7.68;;;;;;;10.64;73.69;99866.78;5007580;28;20121;-77
2022/04/25 07:01:18;;;;;;;12.35;7.60;;;;;;;10.85;72.35;99869.06;5007184;28;20053;-77
2022/04/25 07:03:44;;;;;;;14.23;8.57;;;;;;;11.06;73.42;99866.94;5010289;28;20046;-77
2022/04/25 07:06:09;;;;;;;12.90;7.38;;;;;;;11.14;70.75;99873.78;5013675;28;20049;-77
2022/04/25 07:08:34;;;;;;;11.38;7.97;;;;;;;10.56;70.47;99872.19;5013185;28;20038;-77
2022/04/25 07:10:59;;;;;;;13.10;8.88;;;;;;;10.33;71.91;99874.34;5012925;28;20061;-77
2022/04/25 07:13:25;;;;;;;13.38;7.93;;;;;;;10.50;73.09;99881.06;5012821;28;20038;-76
2022/04/25 07:15:50;;;;;;;11.55;7.78;;;;;;;10.78;72.77;99880.59;5012023;28;20061;-77
2022/04/25 07:18:16;;;;;;;13.45;7.90;;;;;;;10.45;71.64;99888.19;5011271;28;20064;-77
2022/04/25 07:20:42;;;;;;;16.00;9.25;;;;;;;10.08;73.07;99888.69;5006639;28;20042;-77
2022/04/25 07:28:48;;;;;;;15.48;8.85;;;;;;;9.86;73.67;99897.81;5007226;28;20554;-76
2022/04/25 07:28:48;;;;;;;11.07;8.18;;;;;;;9.79;73.81;99898.78;5005193;28;20034;-77
2022/04/25 07:31:17;;;;;;;12.85;8.82;;;;;;;9.95;74.06;99900.31;5013482;28;20036;-77
2022/04/25 07:33:45;;;;;;;11.63;7.50;;;;;;;10.18;71.64;99905.25;5007965;28;20045;-77
2022/04/25 07:36:12;;;;;;;13.20;8.32;;;;;;;9.94;73.95;99914.41;5008793;28;20065;-77
2022/04/25 07:38:39;;;;;;;12.15;8.52;;;;;;;9.84;73.28;99913.63;5011978;28;20177;-76
2022/04/25 07:41:06;;;;;;;13.55;7.75;;;;;;;9.69;74.10;99911.19;5004386;28;20061;-77
2022/04/25 07:43:31;;;;;;;13.93;8.45;;;;;;;9.59;74.79;99920.13;5006202;28;20195;-77
2022/04/25 07:45:57;;;;;;;13.50;8.02;;;;;;;9.64;74.86;99921.81;5008736;28;20702;-77
2022/04/25 07:48:23;;;;;;;11.68;7.93;;;;;;;9.79;73.60;99925.13;5010983;28;20053;-77
2022/04/25 07:50:48;;;;;;;12.15;8.75;;;;;;;9.65;73.71;99930.59;5004884;28;20097;-77
2022/04/25 07:53:14;;;;;;;11.95;8.38;;;;;;;9.77;73.51;99942.72;5006353;28;20045;-77
2022/04/25 07:55:39;;;;;;;13.00;9.23;;;;;;;9.55;73.08;99939.47;5012804;28;20089;-77
2022/04/25 07:58:07;;;;;;;12.90;9.40;;;;;;;9.48;74.06;99943.94;5007028;28;20129;-76
2022/04/25 08:00:33;;;;;;;12.65;8.88;;;;;;;9.55;73.03;99942.97;5004745;28;20038;-77
2022/04/25 08:02:59;;;;;;;12.75;8.60;;;;;;;9.62;73.54;99949.94;5012136;28;20384;-76
2022/04/25 08:05:24;;;;;;;11.32;8.32;;;;;;;9.82;73.07;99947.06;5009521;28;20049;-77
2022/04/25 08:07:49;;;;;;;12.15;8.20;;;;;;;10.06;72.97;99959.06;5011106;28;20046;-76
2022/04/25 08:10:14;;;;;;;11.40;8.48;;;;;;;10.00;71.27;99959.13;5010255;28;20045;-76
2022/04/25 08:18:07;;;;;;;12.70;8.43;;;;;;;9.92;72.61;99957.47;5010561;28;20038;-77
2022/04/25 08:20:37;;;;;;;13.85;8.80;;;;;;;9.97;70.85;99963.56;5007764;28;20068;-76
2022/04/25 08:23:05;;;;;;;14.13;8.43;;;;;;;10.23;71.33;99961.44;5018238;28;20030;-77
2022/04/25 08:25:31;;;;;;;10.80;7.85;;;;;;;10.36;71.96;99961.31;4990457;28;20073;-76
2022/04/25 08:27:58;;;;;;;12.77;7.18;;;;;;;10.76;70.16;99964.22;5019851;28;20042;-77
2022/04/25 08:30:23;;;;;;;13.38;7.10;;;;;;;10.69;69.09;99970.50;5010831;28;20037;-77
2022/04/25 08:32:49;;;;;;;12.02;7.55;;;;;;;10.28;69.23;99972.84;5007475;28;20412;-77
2022/04/25 08:35:15;;;;;;;10.85;7.43;;;;;;;10.20;70.73;99976.47;5004883;28;20474;-77
2022/04/25 08:37:41;;;;;;;9.45;7.28;;;;;;;10.18;71.38;99972.97;5006855;28;20045;-76
2022/04/25 08:40:07;;;;;;;13.18;8.13;;;;;;;10.43;70.24;99978.81;5005028;28;20031;-76
2022/04/25 08:42:32;;;;;;;9.95;6.80;;;;;;;10.36;70.64;99988.56;5004768;28;20030;-76
2022/04/25 08:45:00;;;;;;;12.15;7.55;;;;;;;10.44;69.54;99981.41;5018296;28;20542;-77
2022/04/25 08:47:32;;;;;;;12.40;7.75;;;;;;;10.50;68.95;99994.50;5007127;28;20030;-77
2022/04/25 08:49:58;;;;;;;10.55;7.38;;;;;;;10.66;69.51;99986.38;5008752;28;20100;-76
2022/04/25 08:52:26;;;;;;;8.95;7.45;;;;;;;10.99;69.33;99995.53;5005058;28;20042;-76
2022/04/25 08:54:53;;;;;;;10.30;7.38;;;;;;;11.13;66.92;99988.28;5007027;28;20124;-77
2022/04/25 08:57:20;;;;;;;11.88;7.72;;;;;;;11.03;66.41;100006.91;5003694;28;20599;-76
2022/04/25 08:59:46;;;;;;;10.38;7.43;;;;;;;10.81;67.84;100011.66;5009449;28;20044;-77
2022/04/25 09:02:12;;;;;;;11.25;7.15;;;;;;;10.61;67.42;100017.22;5010286;28;20034;-76
2022/04/25 09:04:38;;;;;;;10.95;7.72;;;;;;;10.70;69.18;100010.06;5004485;28;20038;-76
2022/04/25 09:07:03;;;;;;;9.60;7.05;;;;;;;10.93;68.02;100014.13;4989137;28;20037;-77
2022/04/25 09:09:29;;;;;;;10.15;6.60;;;;;;;10.96;67.61;100009.66;5005380;28;20069;-77
2022/04/25 09:12:10;;;;;;;11.65;6.45;;;;;;;11.08;67.02;100020.91;5004147;28;20077;-77
2022/04/25 09:14:39;;;;;;;9.27;6.50;;;;;;;11.27;67.13;100018.84;5007790;28;20080;-77
2022/04/25 09:17:05;;;;;;;10.85;6.90;;;;;;;11.29;64.71;100024.97;5010889;28;20044;-77
2022/04/25 09:19:30;;;;;;;12.50;7.38;;;;;;;11.38;66.33;100012.47;5011723;28;20108;-76
2022/04/25 09:21:56;;;;;;;12.88;6.72;;;;;;;11.62;64.61;100020.84;5019662;28;20466;-76
2022/04/25 09:24:27;;;;;;;8.90;6.13;;;;;;;11.59;64.46;100013.84;5010711;28;20041;-77
2022/04/25 09:27:09;;;;;;;11.23;6.47;;;;;;;11.65;65.65;100018.16;5012131;28;20030;-77
2022/04/25 09:29:36;;;;;;;12.02;7.32;;;;;;;11.46;63.60;100020.25;5013642;28;20091;-77
2022/04/25 09:32:02;;;;;;;10.20;6.47;;;;;;;11.53;65.67;100011.34;5011124;28;20038;-77
2022/04/25 09:37:16;;;;;;;8.15;5.70;;;;;;;11.85;64.06;100018.63;5023865;28;20042;-77
2022/04/25 09:39:41;;;;;;;9.38;5.93;;;;;;;12.14;62.82;100016.34;5014948;28;20060;-77
2022/04/25 09:42:08;;;;;;;10.10;6.00;;;;;;;12.22;62.63;100014.41;5012740;28;20045;-77
2022/04/25 09:44:58;;;;;;;8.13;5.38;;;;;;;12.74;61.89;100018.56;5011627;28;20041;-77
2022/04/25 09:47:30;;;;;;;7.63;4.80;;;;;;;12.88;60.70;100011.16;5010169;28;20059;-76
2022/04/25 09:49:59;;;;;;;;;;;;;;;12.71;60.20;100019.50;5005104;28;20517;-76
2022/04/25 09:52:24;;;;;;;8.68;5.18;;;;;;;12.69;59.10;100018.66;5007648;28;20060;-77
2022/04/25 09:54:50;;;;;;;8.85;4.50;;;;;;;13.12;60.02;100009.66;5006998;28;20070;-77
2022/04/25 09:57:29;;;;;;;7.78;5.05;;;;;;;13.13;60.17;100002.63;5005804;28;20034;-77
2022/04/25 09:59:56;;;;;;;8.18;4.97;;;;;;;13.01;58.31;100016.16;5016084;28;20069;-77
2022/04/25 10:02:22;;;;;;;7.15;4.93;;;;;;;13.03;60.10;100017.00;5008539;28;20038;-76
2022/04/25 10:04:47;;;;;;;7.35;4.82;;;;;;;13.33;60.06;100010.06;5006084;28;20044;-80
2022/04/25 10:07:13;;;;;;;7.43;4.80;;;;;;;13.37;59.25;100014.41;5013891;28;20030;-77
2022/04/25 10:09:40;;;;;;;7.53;4.75;;;;;;;13.77;57.32;100015.97;5010418;28;20565;-77
2022/04/25 10:12:06;;;;;;;7.13;4.50;;;;;;;13.66;57.20;100018.06;5010103;28;20069;-77
2022/04/25 10:14:32;;;;;;;6.68;4.40;;;;;;;13.73;57.84;100017.00;5009396;28;20125;-77
2022/04/25 10:16:58;;;;;;;8.18;4.20;;;;;;;14.18;57.70;100012.16;5014582;28;20030;-77
2022/04/25 10:19:25;;;;;;;6.60;4.13;;;;;;;14.26;55.15;100017.25;5011898;28;20378;-77
2022/04/25 10:21:55;;;;;;;5.22;3.95;;;;;;;14.28;54.62;100022.50;5010739;28;20088;-77
2022/04/25 10:24:21;;;;;;;6.25;3.90;;;;;;;14.90;55.12;100019.72;5007823;28;20107;-77
2022/04/25 10:26:48;;;;;;;6.82;4.07;;;;;;;14.63;50.47;100021.47;5012820;28;20034;-77
2022/04/25 10:29:17;;;;;;;5.85;3.97;;;;;;;14.11;52.88;100025.66;5007772;28;20034;-77
2022/04/25 10:31:47;;;;;;;6.10;3.60;;;;;;;13.75;54.43;100025.75;5005948;28;20603;-78
2022/04/25 10:34:14;;;;;;;5.32;3.63;;;;;;;14.20;54.34;100025.38;5013523;28;20056;-78
2022/04/25 10:36:39;;;;;;;6.72;3.88;;;;;;;14.43;53.69;100019.38;5022322;28;20487;-77
2022/04/25 10:39:13;;;;;;;5.78;4.10;;;;;;;14.89;52.59;100018.88;5023659;28;20037;-77
2022/04/25 10:44:29;;;;;;;7.20;3.90;;;;;;;14.69;51.17;100022.13;5006370;28;20046;-78
2022/04/25 10:47:04;;;;;;;6.63;4.35;;;;;;;14.65;52.65;100024.97;5004985;28;20049;-78
2022/04/25 10:49:31;;;;;;;5.93;3.25;;;;;;;14.48;52.85;100028.94;5006460;28;20045;-78
2022/04/25 10:51:57;;;;;;;7.35;3.22;;;;;;;14.34;52.64;100039.13;5008365;28;20488;-77
2022/04/25 10:54:26;;;;;;;4.63;3.50;;;;;;;14.72;52.20;100034.47;5010126;28;20040;-78
2022/04/25 10:57:16;;;;;;;3.80;3.00;;;;;;;15.16;50.74;100021.53;5003547;28;20041;-76
2022/04/25 10:59:42;;;;;;;6.47;3.60;;;;;;;15.04;49.52;100035.25;5003913;28;20045;-75
2022/04/25 11:02:24;;;;;;;5.30;3.13;;;;;;;14.96;50.63;100030.19;5000921;28;20034;-75
2022/04/25 11:05:11;;;;;;;4.78;2.65;;;;;;;15.27;48.98;100034.47;5002118;28;20034;-75
2022/04/25 11:07:40;;;;;;;4.97;2.70;;;;;;;15.56;46.70;100039.69;5003894;28;20038;-74
2022/04/25 11:10:06;;;;;;;6.72;3.50;;;;;;;15.74;46.80;100035.53;5001406;28;20034;-75
2022/04/25 11:12:57;;;;;;;5.50;2.78;;;;;;;16.38;47.92;100031.47;5023833;23;20444;-75
2022/04/25 11:15:49;;;;;;;4.97;2.60;;;;;;;16.70;45.41;100037.34;5016430;28;20065;-75
2022/04/25 11:18:36;;;;;;;3.97;2.80;;;;;;;16.40;45.04;100049.13;5019633;28;20128;-76
2022/04/25 11:21:13;;;;;;;6.55;3.25;;;;;;;16.19;46.91;100047.22;5015141;28;20038;-75
2022/04/25 11:23:44;;;;;;;4.15;3.10;;;;;;;16.46;47.31;100049.81;5001795;28;20066;-75
2022/04/25 11:26:11;;;;;;;4.47;3.20;;;;;;;16.89;47.49;100046.34;5001872;28;20134;-75
2022/04/25 11:29:07;;;;;;;3.80;2.58;;;;;;;16.74;44.38;100057.59;4999113;28;20064;-75
2022/04/25 11:31:37;;;;;;;4.05;2.63;;;;;;;16.95;45.10;100054.13;5001538;28;20092;-75
2022/04/25 11:34:05;;;;;;;5.07;3.08;;;;;;;17.06;43.45;100051.03;5001785;28;20042;-75
2022/04/25 11:36:35;;;;;;;4.63;2.95;;;;;;;16.70;43.18;100053.31;5003754;28;20400;-75
2022/04/25 11:41:45;;;;;;;9.77;7.68;;;;;;;16.97;46.38;100056.72;5005479;28;20042;-75
2022/04/25 11:44:10;;;;;;;5.07;3.25;;;;;;;16.35;44.53;100068.88;5005029;28;20404;-75
2022/04/25 11:46:37;;;;;;;5.10;2.85;;;;;;;15.49;47.13;100071.88;5006940;28;20481;-76
2022/04/25 11:49:05;;;;;;;5.25;3.10;;;;;;;15.60;46.85;100080.34;5005838;28;20033;-75
2022/04/25 11:51:35;;;;;;;7.38;3.25;;;;;;;16.52;45.18;100077.06;5005208;28;20042;-75
2022/04/25 11:54:06;;;;;;;4.63;2.90;;;;;;;17.06;42.37;100073.22;5006698;28;20045;-75
2022/04/25 11:56:35;;;;;;;5.53;4.30;;;;;;;17.72;43.06;100074.94;5004334;28;20033;-75